createdAt,value
2022-10-27T00:00:06.987Z,101596.81
2022-10-27T00:02:33.525Z,101594.94
2022-10-27T00:05:00.063Z,101632.44
2022-10-27T00:07:26.589Z,101617.88
2022-10-27T00:09:57.279Z,101589.84
2022-10-27T00:12:23.770Z,101603.06
2022-10-27T00:14:51.384Z,101594.09
2022-10-27T00:17:20.333Z,101574.31
2022-10-27T00:19:46.840Z,101594.25
2022-10-27T00:22:16.033Z,101609.56
2022-10-27T00:24:45.030Z,101543.28
2022-10-27T00:27:11.669Z,101624.75
2022-10-27T00:29:41.208Z,101601.50
2022-10-27T00:32:09.628Z,101669.25
2022-10-27T00:34:36.173Z,101612.19
2022-10-27T00:37:05.063Z,101620.69
2022-10-27T00:39:31.603Z,101603.91
2022-10-27T00:41:58.348Z,101612.53
2022-10-27T00:44:34.792Z,101676.72
2022-10-27T00:47:33.756Z,101677.41
2022-10-27T00:50:23.115Z,101631.28
2022-10-27T00:52:57.826Z,101620.97
2022-10-27T00:55:38.140Z,101630.25
2022-10-27T00:58:11.313Z,101639.09
2022-10-27T01:00:41.340Z,101641.63
2022-10-27T01:03:10.138Z,101632.97
2022-10-27T01:05:37.119Z,101618.44
2022-10-27T01:08:05.434Z,101672.69
2022-10-27T01:10:32.053Z,101598.69
2022-10-27T01:13:00.187Z,101581.81
2022-10-27T01:15:49.897Z,101595.97
2022-10-27T01:18:26.226Z,101642.66
2022-10-27T01:21:31.800Z,101680.19
2022-10-27T01:24:43.335Z,101673.44
2022-10-27T01:27:36.245Z,101584.22
2022-10-27T01:30:10.994Z,101670.53
2022-10-27T01:33:06.615Z,101675.78
2022-10-27T01:36:02.749Z,101677.63
2022-10-27T01:38:40.247Z,101610.28
2022-10-27T01:41:20.448Z,101685.63
2022-10-27T01:43:50.708Z,101624.31
2022-10-27T01:46:17.998Z,101639.03
2022-10-27T01:48:45.735Z,101657.16
2022-10-27T01:51:13.104Z,101617.03
2022-10-27T01:53:51.889Z,101621.16
2022-10-27T01:57:00.279Z,101688.41
2022-10-27T01:59:42.517Z,101618.25
2022-10-27T02:02:28.634Z,101657.78
2022-10-27T02:05:06.778Z,101694.94
2022-10-27T02:07:44.582Z,101698.53
2022-10-27T02:10:21.430Z,101647.66
2022-10-27T02:12:51.736Z,101670.34
2022-10-27T02:15:43.637Z,101658.22
2022-10-27T02:18:17.337Z,101622.00
2022-10-27T02:20:48.229Z,101672.88
2022-10-27T02:23:17.519Z,101594.50
2022-10-27T02:26:13.825Z,101683.84
2022-10-27T02:28:52.482Z,101600.44
2022-10-27T02:31:23.034Z,101577.06
2022-10-27T02:33:50.426Z,101624.78
2022-10-27T02:36:17.870Z,101629.53
2022-10-27T02:38:44.376Z,101611.66
2022-10-27T02:41:10.894Z,101612.34
2022-10-27T02:43:37.390Z,101641.09
2022-10-27T02:46:03.931Z,101611.66
2022-10-27T02:48:30.410Z,101653.09
2022-10-27T02:50:56.896Z,101623.31
2022-10-27T02:53:23.433Z,101622.16
2022-10-27T02:55:49.951Z,101599.81
2022-10-27T02:58:19.841Z,101643.72
2022-10-27T03:00:46.424Z,101619.78
2022-10-27T03:03:15.228Z,101625.03
2022-10-27T03:05:45.497Z,101606.56
2022-10-27T03:08:15.594Z,101645.44
2022-10-27T03:10:43.871Z,101608.59
2022-10-27T03:13:10.750Z,101606.59
2022-10-27T03:15:37.461Z,101613.50
2022-10-27T03:18:04.726Z,101607.28
2022-10-27T03:20:31.206Z,101610.19
2022-10-27T03:22:57.975Z,101634.16
2022-10-27T03:25:24.532Z,101612.97
2022-10-27T03:27:53.824Z,101543.19
2022-10-27T03:30:23.004Z,101536.66
2022-10-27T03:32:51.576Z,101685.56
2022-10-27T03:35:19.982Z,101564.19
2022-10-27T03:37:46.516Z,101588.88
2022-10-27T03:40:14.169Z,101585.13
2022-10-27T03:42:43.802Z,101569.44
2022-10-27T03:45:11.356Z,101663.72
2022-10-27T03:47:46.981Z,101617.91
2022-10-27T03:50:13.494Z,101601.34
2022-10-27T03:52:42.184Z,101603.34
2022-10-27T03:55:11.660Z,101512.31
2022-10-27T03:57:38.033Z,101662.34
2022-10-27T04:00:08.292Z,101584.28
2022-10-27T04:02:34.767Z,101607.41
2022-10-27T04:05:04.794Z,101601.13
2022-10-27T04:07:31.339Z,101640.28
2022-10-27T04:09:57.833Z,101561.59
2022-10-27T04:12:26.708Z,101565.53
2022-10-27T04:14:55.753Z,101631.44
2022-10-27T04:17:22.395Z,101573.13
2022-10-27T04:19:51.334Z,101598.28
2022-10-27T04:22:17.938Z,101593.22
2022-10-27T04:24:46.710Z,101598.81
2022-10-27T04:29:39.792Z,101562.63
2022-10-27T04:32:11.829Z,101570.94
2022-10-27T04:34:38.595Z,101604.25
2022-10-27T04:37:05.187Z,101601.91
2022-10-27T04:39:34.952Z,101602.09
2022-10-27T04:42:02.075Z,101611.75
2022-10-27T04:44:28.718Z,101512.19
2022-10-27T04:46:58.227Z,101557.63
2022-10-27T04:49:24.668Z,101654.41
2022-10-27T04:51:54.208Z,101565.03
2022-10-27T04:54:20.610Z,101655.81
2022-10-27T04:56:50.835Z,101606.59
2022-10-27T04:59:17.322Z,101632.22
2022-10-27T05:01:43.943Z,101569.28
2022-10-27T05:04:19.502Z,101609.03
2022-10-27T05:06:46.058Z,101572.88
2022-10-27T05:09:17.850Z,101579.69
2022-10-27T05:11:48.845Z,101539.25
2022-10-27T05:14:15.339Z,101583.38
2022-10-27T05:16:42.896Z,101572.38
2022-10-27T05:19:10.474Z,101540.63
2022-10-27T05:21:40.273Z,101580.69
2022-10-27T05:24:06.993Z,101565.78
2022-10-27T05:26:37.027Z,101570.22
2022-10-27T05:29:04.828Z,101601.66
2022-10-27T05:31:31.289Z,101549.41
2022-10-27T05:36:27.200Z,101577.31
2022-10-27T05:38:53.758Z,101675.72
2022-10-27T05:41:20.253Z,101639.19
2022-10-27T05:43:48.916Z,101595.09
2022-10-27T05:46:15.363Z,101624.72
2022-10-27T05:48:44.940Z,101674.38
2022-10-27T05:51:15.679Z,101682.34
2022-10-27T05:53:44.378Z,101667.28
2022-10-27T05:56:10.846Z,101626.03
2022-10-27T05:58:37.270Z,101672.34
2022-10-27T06:01:03.790Z,101679.81
2022-10-27T06:03:30.408Z,101638.56
2022-10-27T06:05:57.202Z,101628.63
2022-10-27T06:08:33.442Z,101601.03
2022-10-27T06:11:01.452Z,101597.47
2022-10-27T06:13:27.913Z,101672.34
2022-10-27T06:15:54.355Z,101649.38
2022-10-27T06:18:20.818Z,101625.75
2022-10-27T06:20:49.502Z,101602.38
2022-10-27T06:23:17.941Z,101593.94
2022-10-27T06:25:44.397Z,101650.81
2022-10-27T06:28:10.861Z,101644.66
2022-10-27T06:30:45.125Z,101665.09
2022-10-27T06:33:11.579Z,101679.81
2022-10-27T06:35:38.027Z,101618.63
2022-10-27T06:38:04.570Z,101680.31
2022-10-27T06:40:31.028Z,101626.19
2022-10-27T06:43:13.203Z,101667.44
2022-10-27T06:45:40.749Z,101694.50
2022-10-27T06:48:10.129Z,101629.09
2022-10-27T06:50:36.565Z,101617.19
2022-10-27T06:53:03.805Z,101668.47
2022-10-27T06:55:31.401Z,101674.53
2022-10-27T06:57:58.234Z,101700.91
2022-10-27T07:00:25.243Z,101697.84
2022-10-27T07:02:54.236Z,101647.94
2022-10-27T07:05:20.990Z,101683.94
2022-10-27T07:07:48.910Z,101701.03
2022-10-27T07:10:16.402Z,101645.53
2022-10-27T07:12:53.520Z,101696.91
2022-10-27T07:15:20.365Z,101675.94
2022-10-27T07:17:46.909Z,101687.59
2022-10-27T07:20:13.409Z,101640.03
2022-10-27T07:22:41.356Z,101680.06
2022-10-27T07:25:08.850Z,101651.84
2022-10-27T07:27:35.306Z,101663.31
2022-10-27T07:30:02.082Z,101646.75
2022-10-27T07:32:28.578Z,101663.91
2022-10-27T07:34:58.076Z,101624.38
2022-10-27T07:37:24.387Z,101675.22
2022-10-27T07:39:51.026Z,101606.06
2022-10-27T07:42:20.345Z,101605.00
2022-10-27T07:44:46.860Z,101608.56
2022-10-27T07:47:14.857Z,101638.06
2022-10-27T07:49:41.359Z,101605.59
2022-10-27T07:52:07.873Z,101601.47
2022-10-27T07:54:35.154Z,101597.75
2022-10-27T07:57:01.628Z,101620.38
2022-10-27T07:59:28.162Z,101609.19
2022-10-27T08:01:54.823Z,101610.66
2022-10-27T08:04:21.414Z,101601.00
2022-10-27T08:06:50.396Z,101603.06
2022-10-27T08:09:19.252Z,101584.88
2022-10-27T08:11:46.910Z,101624.41
2022-10-27T08:14:13.492Z,101570.06
2022-10-27T08:16:40.078Z,101579.47
2022-10-27T08:19:06.649Z,101579.66
2022-10-27T08:21:35.387Z,101615.59
2022-10-27T08:24:04.119Z,101629.75
2022-10-27T08:26:31.390Z,101672.06
2022-10-27T08:28:58.921Z,101665.03
2022-10-27T08:31:25.425Z,101624.78
2022-10-27T08:33:52.997Z,101667.66
2022-10-27T08:36:20.501Z,101587.28
2022-10-27T08:38:49.604Z,101603.69
2022-10-27T08:41:37.007Z,101660.53
2022-10-27T08:44:25.098Z,101663.75
2022-10-27T08:46:59.297Z,101599.47
2022-10-27T08:49:36.887Z,101628.03
2022-10-27T08:52:33.689Z,101658.06
2022-10-27T08:55:29.562Z,101651.47
2022-10-27T08:58:14.127Z,101657.22
2022-10-27T09:01:09.583Z,101657.47
2022-10-27T09:03:44.929Z,101659.81
2022-10-27T09:06:26.385Z,101589.94
2022-10-27T09:09:24.351Z,101624.16
2022-10-27T09:12:01.732Z,101649.72
2022-10-27T09:14:59.005Z,101648.09
2022-10-27T09:17:33.560Z,101644.53
2022-10-27T09:20:06.479Z,101618.50
2022-10-27T09:25:20.836Z,101631.53
2022-10-27T09:27:52.743Z,101589.88
2022-10-27T09:30:20.637Z,101619.47
2022-10-27T09:32:53.691Z,101577.81
2022-10-27T09:35:26.594Z,101607.44
2022-10-27T09:37:53.825Z,101566.16
2022-10-27T09:40:23.424Z,101533.13
2022-10-27T09:42:53.449Z,101602.13
2022-10-27T09:45:29.550Z,101564.59
2022-10-27T09:48:04.334Z,101508.97
2022-10-27T09:50:40.857Z,101536.25
2022-10-27T09:53:39.197Z,101603.31
2022-10-27T09:56:09.359Z,101584.59
2022-10-27T09:59:03.162Z,101595.66
2022-10-27T10:01:35.896Z,101593.16
2022-10-27T10:04:29.965Z,101567.97
2022-10-27T10:06:59.247Z,101596.63
2022-10-27T10:09:39.462Z,101592.47
2022-10-27T10:12:15.382Z,101499.28
2022-10-27T10:15:12.693Z,101580.81
2022-10-27T10:17:51.905Z,101580.81
2022-10-27T10:20:30.364Z,101529.47
2022-10-27T10:22:57.165Z,101514.38
2022-10-27T10:25:36.291Z,101585.50
2022-10-27T10:28:11.613Z,101517.34
2022-10-27T10:30:48.938Z,101499.00
2022-10-27T10:33:16.810Z,101535.66
2022-10-27T10:35:43.418Z,101570.78
2022-10-27T10:38:37.242Z,101518.84
2022-10-27T10:41:11.818Z,101543.66
2022-10-27T10:43:39.365Z,101555.44
2022-10-27T10:46:11.669Z,101571.63
2022-10-27T10:48:50.300Z,101564.91
2022-10-27T10:51:35.346Z,101553.16
2022-10-27T10:54:06.998Z,101555.22
2022-10-27T10:56:35.994Z,101511.50
2022-10-27T10:59:12.364Z,101544.09
2022-10-27T11:01:41.875Z,101532.09
2022-10-27T11:04:12.348Z,101530.22
2022-10-27T11:06:52.248Z,101530.00
2022-10-27T11:09:18.729Z,101517.78
2022-10-27T11:11:47.659Z,101488.34
2022-10-27T11:14:18.742Z,101532.50
2022-10-27T11:16:58.637Z,101536.28
2022-10-27T11:19:36.278Z,101501.38
2022-10-27T11:22:15.557Z,101483.06
2022-10-27T11:25:17.743Z,101532.47
2022-10-27T11:27:57.142Z,101526.59
2022-10-27T11:30:25.599Z,101518.16
2022-10-27T11:33:11.582Z,101469.59
2022-10-27T11:35:37.910Z,101509.94
2022-10-27T11:41:30.066Z,101507.59
2022-10-27T11:44:21.303Z,101501.47
2022-10-27T11:47:10.298Z,101446.84
2022-10-27T11:49:52.753Z,101491.56
2022-10-27T11:52:38.536Z,101412.75
2022-10-27T11:55:08.494Z,101409.16
2022-10-27T11:58:10.245Z,101400.16
2022-10-27T12:00:45.400Z,101440.44
2022-10-27T12:03:47.275Z,101416.31
2022-10-27T12:06:25.448Z,101468.31
2022-10-27T12:09:29.785Z,101428.81
2022-10-27T12:12:14.673Z,101420.31
2022-10-27T12:15:00.298Z,101455.72
2022-10-27T12:17:44.797Z,101466.41
2022-10-27T12:20:16.231Z,101465.19
2022-10-27T12:22:55.512Z,101414.34
2022-10-27T12:26:03.111Z,101456.50
2022-10-27T12:28:32.237Z,101416.16
2022-10-27T12:31:02.577Z,101381.53
2022-10-27T12:33:38.697Z,101454.25
2022-10-27T12:36:23.892Z,101449.19
2022-10-27T12:39:19.109Z,101391.28
2022-10-27T12:42:06.682Z,101396.03
2022-10-27T12:44:59.015Z,101402.59
2022-10-27T12:47:54.067Z,101419.38
2022-10-27T12:50:58.709Z,101445.06
2022-10-27T12:53:40.458Z,101447.50
2022-10-27T12:56:34.473Z,101433.94
2022-10-27T12:59:35.356Z,101445.41
2022-10-27T13:02:14.029Z,101442.66
2022-10-27T13:04:59.947Z,101429.91
2022-10-27T13:07:42.766Z,101434.72
2022-10-27T13:10:52.337Z,101401.94
2022-10-27T13:13:48.941Z,101410.31
2022-10-27T13:16:26.834Z,101351.72
2022-10-27T13:19:24.569Z,101426.78
2022-10-27T13:22:02.013Z,101391.56
2022-10-27T13:24:43.619Z,101368.56
2022-10-27T13:27:26.970Z,101410.94
2022-10-27T13:30:02.345Z,101417.41
2022-10-27T13:32:38.090Z,101379.69
2022-10-27T13:35:04.501Z,101410.78
2022-10-27T13:37:55.484Z,101404.19
2022-10-27T13:40:22.242Z,101401.81
2022-10-27T13:42:53.995Z,101372.41
2022-10-27T13:45:34.808Z,101394.13
2022-10-27T13:48:07.358Z,101396.03
2022-10-27T13:50:44.383Z,101394.19
2022-10-27T13:53:19.866Z,101393.34
2022-10-27T13:55:49.257Z,101389.16
2022-10-27T13:58:18.737Z,101393.84
2022-10-27T14:01:22.958Z,101397.16
2022-10-27T14:04:13.624Z,101373.03
2022-10-27T14:06:45.711Z,101389.56
2022-10-27T14:09:21.885Z,101317.50
2022-10-27T14:11:50.135Z,101312.31
2022-10-27T14:14:40.783Z,101382.69
2022-10-27T14:17:23.682Z,101388.81
2022-10-27T14:20:16.636Z,101329.78
2022-10-27T14:22:49.309Z,101326.47
2022-10-27T14:25:26.684Z,101340.97
2022-10-27T14:28:20.557Z,101385.78
2022-10-27T14:31:07.060Z,101353.63
2022-10-27T14:33:36.632Z,101337.09
2022-10-27T14:36:10.209Z,101387.22
2022-10-27T14:38:36.971Z,101309.56
2022-10-27T14:41:12.518Z,101306.13
2022-10-27T14:43:53.270Z,101375.72
2022-10-27T14:46:28.632Z,101304.22
2022-10-27T14:49:07.603Z,101367.34
2022-10-27T14:51:38.925Z,101352.09
2022-10-27T14:56:38.229Z,101376.66
2022-10-27T14:59:18.202Z,101377.25
2022-10-27T15:01:45.105Z,101355.31
2022-10-27T15:04:32.635Z,101372.66
2022-10-27T15:07:03.226Z,101357.19
2022-10-27T15:09:37.733Z,101382.66
2022-10-27T15:12:06.930Z,101324.78
2022-10-27T15:14:34.849Z,101364.25
2022-10-27T15:17:01.718Z,101384.00
2022-10-27T15:19:28.267Z,101320.72
2022-10-27T15:21:55.235Z,101354.72
2022-10-27T15:24:26.189Z,101325.63
2022-10-27T15:26:54.433Z,101356.63
2022-10-27T15:29:21.976Z,101357.66
2022-10-27T15:31:57.963Z,101358.97
2022-10-27T15:34:33.871Z,101393.81
2022-10-27T15:37:34.870Z,101364.84
2022-10-27T15:40:28.886Z,101396.34
2022-10-27T15:42:56.662Z,101342.09
2022-10-27T15:45:35.077Z,101392.66
2022-10-27T15:48:04.844Z,101313.47
2022-10-27T15:50:39.496Z,101385.50
2022-10-27T15:53:20.461Z,101354.97
2022-10-27T15:56:07.518Z,101351.63
2022-10-27T15:58:39.232Z,101377.47
2022-10-27T16:01:05.816Z,101385.63
2022-10-27T16:03:43.610Z,101317.16
2022-10-27T16:06:25.529Z,101396.03
2022-10-27T16:08:53.347Z,101341.38
2022-10-27T16:11:21.647Z,101403.84
2022-10-27T16:13:50.197Z,101346.56
2022-10-27T16:16:16.854Z,101384.66
2022-10-27T16:18:43.367Z,101303.47
2022-10-27T16:24:19.015Z,101315.25
2022-10-27T16:26:47.169Z,101337.81
2022-10-27T16:29:19.634Z,101365.47
2022-10-27T16:31:47.653Z,101387.41
2022-10-27T16:34:23.693Z,101319.91
2022-10-27T16:37:43.553Z,101280.31
2022-10-27T16:40:18.167Z,101296.81
2022-10-27T16:42:49.089Z,101298.25
2022-10-27T16:45:23.431Z,101325.97
2022-10-27T16:48:04.497Z,101299.41
2022-10-27T16:50:31.238Z,101339.22
2022-10-27T16:52:57.724Z,101373.53
2022-10-27T16:55:24.175Z,101382.72
2022-10-27T16:57:50.896Z,101391.78
2022-10-27T17:00:18.030Z,101347.88
2022-10-27T17:02:44.624Z,101355.66
2022-10-27T17:05:18.789Z,101396.78
2022-10-27T17:07:46.230Z,101365.63
2022-10-27T17:10:16.532Z,101325.63
2022-10-27T17:12:43.425Z,101377.06
2022-10-27T17:15:10.156Z,101369.34
2022-10-27T17:17:36.676Z,101352.78
2022-10-27T17:20:03.335Z,101325.06
2022-10-27T17:22:29.818Z,101340.63
2022-10-27T17:24:56.362Z,101346.28
2022-10-27T17:27:22.828Z,101398.03
2022-10-27T17:29:49.275Z,101331.75
2022-10-27T17:32:16.314Z,101368.91
2022-10-27T17:34:43.916Z,101381.69
2022-10-27T17:37:11.503Z,101345.84
2022-10-27T17:39:37.984Z,101308.75
2022-10-27T17:42:05.593Z,101358.69
2022-10-27T17:44:32.113Z,101364.75
2022-10-27T17:46:58.528Z,101405.91
2022-10-27T17:49:25.004Z,101393.19
2022-10-27T17:51:51.612Z,101337.38
2022-10-27T17:54:18.130Z,101325.66
2022-10-27T17:56:44.624Z,101413.00
2022-10-27T17:59:15.251Z,101375.25
2022-10-27T18:01:42.386Z,101408.47
2022-10-27T18:04:11.833Z,101408.56
2022-10-27T18:06:42.127Z,101422.63
2022-10-27T18:09:10.439Z,101391.41
2022-10-27T18:11:38.415Z,101369.22
2022-10-27T18:14:10.681Z,101396.09
2022-10-27T18:16:42.447Z,101411.81
2022-10-27T18:19:10.854Z,101342.31
2022-10-27T18:21:42.450Z,101414.97
2022-10-27T18:24:13.199Z,101408.28
2022-10-27T18:26:41.698Z,101416.91
2022-10-27T18:29:10.614Z,101375.13
2022-10-27T18:31:38.616Z,101394.47
2022-10-27T18:34:06.985Z,101394.09
2022-10-27T18:36:34.158Z,101418.22
2022-10-27T18:39:01.810Z,101360.47
2022-10-27T18:41:31.729Z,101399.13
2022-10-27T18:43:58.244Z,101390.50
2022-10-27T18:46:25.285Z,101414.69
2022-10-27T18:48:58.949Z,101410.03
2022-10-27T18:51:27.510Z,101393.28
2022-10-27T18:53:56.169Z,101402.72
2022-10-27T18:56:23.248Z,101424.16
2022-10-27T18:58:54.064Z,101358.44
2022-10-27T19:01:21.489Z,101404.81
2022-10-27T19:03:52.803Z,101423.97
2022-10-27T19:06:19.602Z,101345.66
2022-10-27T19:08:46.058Z,101384.28
2022-10-27T19:11:38.731Z,101424.59
2022-10-27T19:14:05.217Z,101392.47
2022-10-27T19:16:31.763Z,101388.06
2022-10-27T19:18:59.143Z,101417.06
2022-10-27T19:21:25.874Z,101354.69
2022-10-27T19:23:57.946Z,101366.03
2022-10-27T19:26:27.294Z,101368.97
2022-10-27T19:28:55.766Z,101414.94
2022-10-27T19:31:25.667Z,101363.72
2022-10-27T19:33:52.572Z,101402.16
2022-10-27T19:36:30.817Z,101329.06
2022-10-27T19:38:59.006Z,101355.31
2022-10-27T19:41:29.301Z,101403.41
2022-10-27T19:43:56.803Z,101322.34
2022-10-27T19:46:25.448Z,101374.22
2022-10-27T19:48:55.241Z,101408.03
2022-10-27T19:51:24.778Z,101408.03
2022-10-27T19:53:53.051Z,101414.34
2022-10-27T19:56:19.607Z,101374.03
2022-10-27T19:58:50.984Z,101406.34
2022-10-27T20:01:20.250Z,101363.72
2022-10-27T20:03:47.625Z,101381.59
2022-10-27T20:06:14.482Z,101366.44
2022-10-27T20:08:42.225Z,101421.50
2022-10-27T20:11:11.003Z,101426.97
2022-10-27T20:13:37.940Z,101412.69
2022-10-27T20:16:10.470Z,101335.97
2022-10-27T20:18:36.934Z,101393.97
2022-10-27T20:21:03.526Z,101342.53
2022-10-27T20:23:30.487Z,101381.16
2022-10-27T20:26:27.875Z,101421.09
2022-10-27T20:28:51.390Z,101358.69
2022-10-27T20:31:18.128Z,101418.97
2022-10-27T20:33:44.577Z,101387.66
2022-10-27T20:36:15.206Z,101361.41
2022-10-27T20:38:43.386Z,101372.97
2022-10-27T20:41:15.952Z,101343.78
2022-10-27T20:43:42.640Z,101365.22
2022-10-27T20:46:09.490Z,101339.16
2022-10-27T20:48:37.097Z,101332.44
2022-10-27T20:51:10.522Z,101401.56
2022-10-27T20:53:37.642Z,101341.69
2022-10-27T20:56:05.126Z,101380.97
2022-10-27T20:58:31.733Z,101414.38
2022-10-27T21:01:16.876Z,101407.03
2022-10-27T21:03:43.966Z,101388.31
2022-10-27T21:06:11.794Z,101383.69
2022-10-27T21:08:38.325Z,101373.16
2022-10-27T21:11:05.432Z,101358.50
2022-10-27T21:13:32.341Z,101393.34
2022-10-27T21:15:59.834Z,101396.06
2022-10-27T21:18:26.908Z,101381.16
2022-10-27T21:20:53.414Z,101344.41
2022-10-27T21:23:19.990Z,101311.41
2022-10-27T21:25:46.568Z,101319.81
2022-10-27T21:28:13.122Z,101337.47
2022-10-27T21:30:39.582Z,101316.03
2022-10-27T21:33:06.198Z,101344.59
2022-10-27T21:35:32.786Z,101326.75
2022-10-27T21:38:00.939Z,101365.44
2022-10-27T21:40:27.448Z,101337.25
2022-10-27T21:42:55.995Z,101337.91
2022-10-27T21:45:23.450Z,101374.88
2022-10-27T21:47:50.284Z,101318.13
2022-10-27T21:50:17.917Z,101345.22
2022-10-27T21:52:45.491Z,101336.22
2022-10-27T21:55:12.037Z,101329.47
2022-10-27T21:57:38.558Z,101322.75
2022-10-27T22:00:05.907Z,101330.75
2022-10-27T22:02:34.774Z,101357.22
2022-10-27T22:05:01.354Z,101361.81
2022-10-27T22:07:28.027Z,101330.09
2022-10-27T22:09:54.485Z,101334.31
2022-10-27T22:12:21.018Z,101339.97
2022-10-27T22:14:47.476Z,101305.56
2022-10-27T22:17:13.992Z,101303.63
2022-10-27T22:19:40.581Z,101278.84
2022-10-27T22:22:09.183Z,101325.91
2022-10-27T22:24:35.610Z,101263.09
2022-10-27T22:27:03.158Z,101343.97
2022-10-27T22:29:29.670Z,101288.31
2022-10-27T22:31:56.239Z,101290.19
2022-10-27T22:34:22.748Z,101202.88
2022-10-27T22:36:49.284Z,101354.84
2022-10-27T22:39:15.900Z,101295.03
2022-10-27T22:41:42.442Z,101272.31
2022-10-27T22:44:08.948Z,101272.97
2022-10-27T22:46:36.031Z,101276.94
2022-10-27T22:49:03.403Z,101330.31
2022-10-27T22:51:30.001Z,101286.38
2022-10-27T22:53:57.626Z,101309.50
2022-10-27T22:56:25.799Z,101342.50
2022-10-27T22:58:54.958Z,101362.19
2022-10-27T23:01:27.623Z,101371.47
2022-10-27T23:03:56.731Z,101353.59
2022-10-27T23:06:24.888Z,101330.53
2022-10-27T23:08:53.583Z,101361.81
2022-10-27T23:11:21.020Z,101351.75
2022-10-27T23:13:47.608Z,101284.94
2022-10-27T23:16:14.520Z,101283.66
2022-10-27T23:18:41.435Z,101332.41
2022-10-27T23:21:12.482Z,101334.97
2022-10-27T23:23:39.017Z,101342.72
2022-10-27T23:26:05.782Z,101337.91
2022-10-27T23:28:32.450Z,101282.41
2022-10-27T23:31:03.206Z,101299.66
2022-10-27T23:33:29.847Z,101252.84
2022-10-27T23:36:01.392Z,101337.47
2022-10-27T23:38:28.707Z,101255.78
2022-10-27T23:40:57.002Z,101335.59
2022-10-27T23:43:24.235Z,101260.59
2022-10-27T23:45:58.262Z,101272.56
2022-10-27T23:48:24.708Z,101296.28
2022-10-27T23:50:51.154Z,101291.44
2022-10-27T23:53:17.629Z,101268.56
2022-10-27T23:55:44.112Z,101279.94
2022-10-27T23:58:10.562Z,101314.75
